sensor_id;sensor_type;location;lat;lon;timestamp;P1;durP1;ratioP1;P2;durP2;ratioP2
5805;SDS011;2929;50.810;8.342;2022-11-11T00:00:46;23.47;;;11.83;;
5805;SDS011;2929;50.810;8.342;2022-11-11T00:03:32;16.60;;;9.20;;
5805;SDS011;2929;50.810;8.342;2022-11-11T00:06:18;17.57;;;9.53;;
5805;SDS011;2929;50.810;8.342;2022-11-11T00:09:03;17.53;;;9.87;;
5805;SDS011;2929;50.810;8.342;2022-11-11T00:11:49;18.93;;;8.80;;
5805;SDS011;2929;50.810;8.342;2022-11-11T00:14:36;17.27;;;9.80;;
5805;SDS011;2929;50.810;8.342;2022-11-11T00:17:21;25.03;;;10.47;;
5805;SDS011;2929;50.810;8.342;2022-11-11T00:20:25;29.63;;;12.77;;
5805;SDS011;2929;50.810;8.342;2022-11-11T00:23:28;34.33;;;11.83;;
5805;SDS011;2929;50.810;8.342;2022-11-11T00:26:45;19.10;;;9.30;;
5805;SDS011;2929;50.810;8.342;2022-11-11T00:29:31;20.53;;;9.40;;
5805;SDS011;2929;50.810;8.342;2022-11-11T00:32:17;25.23;;;10.73;;
5805;SDS011;2929;50.810;8.342;2022-11-11T00:35:11;21.20;;;10.20;;
5805;SDS011;2929;50.810;8.342;2022-11-11T00:38:15;22.07;;;12.20;;
5805;SDS011;2929;50.810;8.342;2022-11-11T00:41:15;30.60;;;13.43;;
5805;SDS011;2929;50.810;8.342;2022-11-11T00:44:01;29.93;;;13.90;;
5805;SDS011;2929;50.810;8.342;2022-11-11T00:46:47;29.60;;;13.80;;
5805;SDS011;2929;50.810;8.342;2022-11-11T00:49:51;27.73;;;11.40;;
5805;SDS011;2929;50.810;8.342;2022-11-11T00:52:54;24.83;;;10.83;;
5805;SDS011;2929;50.810;8.342;2022-11-11T00:55:40;27.43;;;11.90;;
5805;SDS011;2929;50.810;8.342;2022-11-11T00:58:26;21.73;;;9.90;;
5805;SDS011;2929;50.810;8.342;2022-11-11T01:01:12;27.87;;;12.43;;
5805;SDS011;2929;50.810;8.342;2022-11-11T01:03:57;23.93;;;11.60;;
5805;SDS011;2929;50.810;8.342;2022-11-11T01:06:45;23.00;;;10.23;;
5805;SDS011;2929;50.810;8.342;2022-11-11T01:09:30;16.63;;;9.03;;
5805;SDS011;2929;50.810;8.342;2022-11-11T01:12:16;22.43;;;9.83;;
5805;SDS011;2929;50.810;8.342;2022-11-11T01:15:02;35.87;;;12.80;;
5805;SDS011;2929;50.810;8.342;2022-11-11T01:17:47;33.00;;;14.40;;
5805;SDS011;2929;50.810;8.342;2022-11-11T01:20:33;30.83;;;13.17;;
5805;SDS011;2929;50.810;8.342;2022-11-11T01:23:21;30.40;;;12.20;;
5805;SDS011;2929;50.810;8.342;2022-11-11T01:26:09;39.43;;;11.10;;
5805;SDS011;2929;50.810;8.342;2022-11-11T01:28:57;47.37;;;12.23;;
5805;SDS011;2929;50.810;8.342;2022-11-11T01:31:43;37.17;;;13.07;;
5805;SDS011;2929;50.810;8.342;2022-11-11T01:34:29;52.17;;;14.13;;
5805;SDS011;2929;50.810;8.342;2022-11-11T01:37:14;65.33;;;11.43;;
5805;SDS011;2929;50.810;8.342;2022-11-11T01:40:01;44.00;;;13.23;;
5805;SDS011;2929;50.810;8.342;2022-11-11T01:42:48;65.37;;;12.27;;
5805;SDS011;2929;50.810;8.342;2022-11-11T01:45:44;46.10;;;11.07;;
5805;SDS011;2929;50.810;8.342;2022-11-11T01:48:32;47.87;;;10.87;;
5805;SDS011;2929;50.810;8.342;2022-11-11T01:51:38;41.03;;;12.40;;
5805;SDS011;2929;50.810;8.342;2022-11-11T01:54:27;55.03;;;13.00;;
5805;SDS011;2929;50.810;8.342;2022-11-11T01:57:21;53.97;;;13.80;;
5805;SDS011;2929;50.810;8.342;2022-11-11T02:00:11;48.23;;;13.27;;
5805;SDS011;2929;50.810;8.342;2022-11-11T02:02:58;40.07;;;11.60;;
5805;SDS011;2929;50.810;8.342;2022-11-11T02:05:49;53.73;;;12.27;;
5805;SDS011;2929;50.810;8.342;2022-11-11T02:08:38;60.87;;;12.10;;
5805;SDS011;2929;50.810;8.342;2022-11-11T02:11:24;53.67;;;10.00;;
5805;SDS011;2929;50.810;8.342;2022-11-11T02:14:30;45.83;;;8.83;;
5805;SDS011;2929;50.810;8.342;2022-11-11T02:17:20;45.43;;;9.90;;
5805;SDS011;2929;50.810;8.342;2022-11-11T02:20:06;73.60;;;11.07;;
5805;SDS011;2929;50.810;8.342;2022-11-11T02:22:55;58.87;;;11.53;;
5805;SDS011;2929;50.810;8.342;2022-11-11T02:25:47;45.70;;;10.70;;
5805;SDS011;2929;50.810;8.342;2022-11-11T02:28:34;25.43;;;9.97;;
5805;SDS011;2929;50.810;8.342;2022-11-11T02:31:24;33.00;;;10.23;;
5805;SDS011;2929;50.810;8.342;2022-11-11T02:34:11;49.77;;;10.47;;
5805;SDS011;2929;50.810;8.342;2022-11-11T02:36:57;33.40;;;10.90;;
5805;SDS011;2929;50.810;8.342;2022-11-11T02:39:45;39.13;;;12.03;;
5805;SDS011;2929;50.810;8.342;2022-11-11T02:42:35;33.10;;;11.00;;
5805;SDS011;2929;50.810;8.342;2022-11-11T02:45:20;23.10;;;10.80;;
5805;SDS011;2929;50.810;8.342;2022-11-11T02:48:06;30.13;;;10.33;;
5805;SDS011;2929;50.810;8.342;2022-11-11T02:50:51;30.57;;;11.00;;
5805;SDS011;2929;50.810;8.342;2022-11-11T02:53:37;19.23;;;9.40;;
5805;SDS011;2929;50.810;8.342;2022-11-11T02:56:22;37.93;;;9.53;;
5805;SDS011;2929;50.810;8.342;2022-11-11T02:59:23;42.70;;;9.70;;
5805;SDS011;2929;50.810;8.342;2022-11-11T03:02:08;24.30;;;8.70;;
5805;SDS011;2929;50.810;8.342;2022-11-11T03:04:54;20.13;;;8.80;;
5805;SDS011;2929;50.810;8.342;2022-11-11T03:07:40;24.03;;;7.80;;
5805;SDS011;2929;50.810;8.342;2022-11-11T03:10:25;17.07;;;8.23;;
5805;SDS011;2929;50.810;8.342;2022-11-11T03:13:11;22.93;;;7.87;;
5805;SDS011;2929;50.810;8.342;2022-11-11T03:15:58;15.60;;;7.30;;
5805;SDS011;2929;50.810;8.342;2022-11-11T03:18:43;21.93;;;8.90;;
5805;SDS011;2929;50.810;8.342;2022-11-11T03:21:28;21.50;;;9.03;;
5805;SDS011;2929;50.810;8.342;2022-11-11T03:24:14;16.80;;;8.30;;
5805;SDS011;2929;50.810;8.342;2022-11-11T03:26:59;12.27;;;7.37;;
5805;SDS011;2929;50.810;8.342;2022-11-11T03:29:45;13.60;;;7.80;;
5805;SDS011;2929;50.810;8.342;2022-11-11T03:32:32;19.53;;;8.40;;
5805;SDS011;2929;50.810;8.342;2022-11-11T03:35:17;22.60;;;7.80;;
5805;SDS011;2929;50.810;8.342;2022-11-11T03:38:03;24.23;;;7.53;;
5805;SDS011;2929;50.810;8.342;2022-11-11T03:40:58;17.10;;;8.00;;
5805;SDS011;2929;50.810;8.342;2022-11-11T03:43:44;15.93;;;8.63;;
5805;SDS011;2929;50.810;8.342;2022-11-11T03:46:30;18.30;;;7.13;;
5805;SDS011;2929;50.810;8.342;2022-11-11T03:49:17;22.33;;;8.17;;
5805;SDS011;2929;50.810;8.342;2022-11-11T03:52:03;17.70;;;7.07;;
5805;SDS011;2929;50.810;8.342;2022-11-11T03:54:48;16.13;;;7.77;;
5805;SDS011;2929;50.810;8.342;2022-11-11T03:57:37;17.73;;;6.27;;
5805;SDS011;2929;50.810;8.342;2022-11-11T04:00:25;13.43;;;7.73;;
5805;SDS011;2929;50.810;8.342;2022-11-11T04:03:12;13.90;;;7.30;;
5805;SDS011;2929;50.810;8.342;2022-11-11T04:06:18;19.27;;;8.00;;
5805;SDS011;2929;50.810;8.342;2022-11-11T04:09:21;28.47;;;9.23;;
5805;SDS011;2929;50.810;8.342;2022-11-11T04:12:24;17.13;;;6.70;;
5805;SDS011;2929;50.810;8.342;2022-11-11T04:15:12;22.30;;;8.03;;
5805;SDS011;2929;50.810;8.342;2022-11-11T04:18:16;13.90;;;7.70;;
5805;SDS011;2929;50.810;8.342;2022-11-11T04:21:23;24.93;;;8.40;;
5805;SDS011;2929;50.810;8.342;2022-11-11T04:24:25;18.70;;;7.30;;
5805;SDS011;2929;50.810;8.342;2022-11-11T04:27:29;15.63;;;7.30;;
5805;SDS011;2929;50.810;8.342;2022-11-11T04:30:14;16.37;;;8.20;;
5805;SDS011;2929;50.810;8.342;2022-11-11T04:32:59;15.73;;;7.00;;
5805;SDS011;2929;50.810;8.342;2022-11-11T04:35:47;35.57;;;8.13;;
5805;SDS011;2929;50.810;8.342;2022-11-11T04:38:34;18.83;;;7.90;;
5805;SDS011;2929;50.810;8.342;2022-11-11T04:41:37;13.67;;;6.37;;
5805;SDS011;2929;50.810;8.342;2022-11-11T04:44:23;20.47;;;6.97;;
5805;SDS011;2929;50.810;8.342;2022-11-11T04:47:26;26.17;;;6.60;;
5805;SDS011;2929;50.810;8.342;2022-11-11T04:50:12;26.90;;;6.00;;
5805;SDS011;2929;50.810;8.342;2022-11-11T04:52:58;32.97;;;7.53;;
5805;SDS011;2929;50.810;8.342;2022-11-11T04:55:46;44.27;;;7.33;;
5805;SDS011;2929;50.810;8.342;2022-11-11T04:58:49;39.73;;;9.03;;
5805;SDS011;2929;50.810;8.342;2022-11-11T05:01:55;54.40;;;10.20;;
5805;SDS011;2929;50.810;8.342;2022-11-11T05:04:59;35.90;;;8.40;;
5805;SDS011;2929;50.810;8.342;2022-11-11T05:07:44;56.47;;;9.60;;
5805;SDS011;2929;50.810;8.342;2022-11-11T05:10:50;44.23;;;8.50;;
5805;SDS011;2929;50.810;8.342;2022-11-11T05:13:35;34.23;;;8.53;;
5805;SDS011;2929;50.810;8.342;2022-11-11T05:16:39;66.07;;;7.50;;
5805;SDS011;2929;50.810;8.342;2022-11-11T05:19:45;72.37;;;8.20;;
5805;SDS011;2929;50.810;8.342;2022-11-11T05:22:47;38.47;;;7.47;;
5805;SDS011;2929;50.810;8.342;2022-11-11T05:25:33;75.00;;;9.57;;
5805;SDS011;2929;50.810;8.342;2022-11-11T05:28:19;75.10;;;14.53;;
5805;SDS011;2929;50.810;8.342;2022-11-11T05:31:05;56.03;;;11.77;;
5805;SDS011;2929;50.810;8.342;2022-11-11T05:33:50;60.50;;;9.43;;
5805;SDS011;2929;50.810;8.342;2022-11-11T05:36:36;49.87;;;8.97;;
5805;SDS011;2929;50.810;8.342;2022-11-11T05:39:21;64.73;;;11.73;;
5805;SDS011;2929;50.810;8.342;2022-11-11T05:42:07;41.20;;;10.50;;
5805;SDS011;2929;50.810;8.342;2022-11-11T05:44:54;60.17;;;13.20;;
5805;SDS011;2929;50.810;8.342;2022-11-11T05:47:40;43.40;;;11.97;;
5805;SDS011;2929;50.810;8.342;2022-11-11T05:50:26;54.60;;;11.00;;
5805;SDS011;2929;50.810;8.342;2022-11-11T05:53:12;31.93;;;8.40;;
5805;SDS011;2929;50.810;8.342;2022-11-11T05:55:57;38.47;;;8.70;;
5805;SDS011;2929;50.810;8.342;2022-11-11T05:58:43;51.20;;;8.23;;
5805;SDS011;2929;50.810;8.342;2022-11-11T06:01:31;38.43;;;8.10;;
5805;SDS011;2929;50.810;8.342;2022-11-11T06:04:17;16.90;;;6.40;;
5805;SDS011;2929;50.810;8.342;2022-11-11T06:07:02;34.87;;;6.37;;
5805;SDS011;2929;50.810;8.342;2022-11-11T06:09:48;31.63;;;6.80;;
5805;SDS011;2929;50.810;8.342;2022-11-11T06:12:37;35.20;;;8.07;;
5805;SDS011;2929;50.810;8.342;2022-11-11T06:15:44;55.40;;;8.37;;
5805;SDS011;2929;50.810;8.342;2022-11-11T06:18:32;26.60;;;9.20;;
5805;SDS011;2929;50.810;8.342;2022-11-11T06:21:17;44.63;;;6.43;;
5805;SDS011;2929;50.810;8.342;2022-11-11T06:24:03;30.33;;;7.30;;
5805;SDS011;2929;50.810;8.342;2022-11-11T06:26:49;42.50;;;5.60;;
5805;SDS011;2929;50.810;8.342;2022-11-11T06:29:34;34.50;;;6.70;;
5805;SDS011;2929;50.810;8.342;2022-11-11T06:32:20;36.87;;;7.40;;
5805;SDS011;2929;50.810;8.342;2022-11-11T06:35:07;21.83;;;6.00;;
5805;SDS011;2929;50.810;8.342;2022-11-11T06:37:53;32.57;;;6.67;;
5805;SDS011;2929;50.810;8.342;2022-11-11T06:40:38;21.87;;;6.90;;
5805;SDS011;2929;50.810;8.342;2022-11-11T06:43:25;38.50;;;6.43;;
5805;SDS011;2929;50.810;8.342;2022-11-11T06:46:15;34.10;;;8.30;;
5805;SDS011;2929;50.810;8.342;2022-11-11T06:49:04;34.17;;;7.47;;
5805;SDS011;2929;50.810;8.342;2022-11-11T06:51:51;21.47;;;8.30;;
5805;SDS011;2929;50.810;8.342;2022-11-11T06:54:36;20.53;;;7.67;;
5805;SDS011;2929;50.810;8.342;2022-11-11T06:57:22;24.27;;;8.10;;
5805;SDS011;2929;50.810;8.342;2022-11-11T07:00:08;32.00;;;8.97;;
5805;SDS011;2929;50.810;8.342;2022-11-11T07:02:54;57.97;;;10.83;;
5805;SDS011;2929;50.810;8.342;2022-11-11T07:05:40;28.60;;;9.33;;
5805;SDS011;2929;50.810;8.342;2022-11-11T07:08:28;35.17;;;9.97;;
5805;SDS011;2929;50.810;8.342;2022-11-11T07:11:13;26.37;;;10.30;;
5805;SDS011;2929;50.810;8.342;2022-11-11T07:17:06;22.37;;;6.13;;
5805;SDS011;2929;50.810;8.342;2022-11-11T07:19:52;24.00;;;6.00;;
5805;SDS011;2929;50.810;8.342;2022-11-11T07:22:38;17.33;;;6.43;;
5805;SDS011;2929;50.810;8.342;2022-11-11T07:25:25;30.93;;;7.70;;
5805;SDS011;2929;50.810;8.342;2022-11-11T07:28:11;15.27;;;6.27;;
5805;SDS011;2929;50.810;8.342;2022-11-11T07:30:57;16.00;;;6.27;;
5805;SDS011;2929;50.810;8.342;2022-11-11T07:33:42;37.77;;;6.97;;
5805;SDS011;2929;50.810;8.342;2022-11-11T07:36:28;13.77;;;7.10;;
5805;SDS011;2929;50.810;8.342;2022-11-11T07:39:13;30.63;;;7.60;;
5805;SDS011;2929;50.810;8.342;2022-11-11T07:42:00;34.53;;;6.63;;
5805;SDS011;2929;50.810;8.342;2022-11-11T07:44:46;41.23;;;7.67;;
5805;SDS011;2929;50.810;8.342;2022-11-11T07:47:31;34.43;;;7.30;;
5805;SDS011;2929;50.810;8.342;2022-11-11T07:50:18;30.73;;;7.10;;
5805;SDS011;2929;50.810;8.342;2022-11-11T07:53:04;30.10;;;7.33;;
5805;SDS011;2929;50.810;8.342;2022-11-11T07:55:49;27.17;;;8.13;;
5805;SDS011;2929;50.810;8.342;2022-11-11T07:58:36;27.23;;;7.53;;
5805;SDS011;2929;50.810;8.342;2022-11-11T08:01:22;13.83;;;8.07;;
5805;SDS011;2929;50.810;8.342;2022-11-11T08:04:07;16.20;;;7.57;;
5805;SDS011;2929;50.810;8.342;2022-11-11T08:10:41;10.73;;;5.20;;
5805;SDS011;2929;50.810;8.342;2022-11-11T08:17:02;8.30;;;4.50;;
5805;SDS011;2929;50.810;8.342;2022-11-11T08:19:48;16.53;;;5.80;;
5805;SDS011;2929;50.810;8.342;2022-11-11T08:22:36;10.33;;;5.67;;
5805;SDS011;2929;50.810;8.342;2022-11-11T08:25:22;9.83;;;5.37;;
5805;SDS011;2929;50.810;8.342;2022-11-11T08:28:08;38.53;;;5.57;;
5805;SDS011;2929;50.810;8.342;2022-11-11T08:30:54;29.23;;;5.13;;
5805;SDS011;2929;50.810;8.342;2022-11-11T08:33:44;29.23;;;5.10;;
5805;SDS011;2929;50.810;8.342;2022-11-11T08:36:29;11.40;;;5.90;;
5805;SDS011;2929;50.810;8.342;2022-11-11T08:39:15;11.27;;;6.13;;
5805;SDS011;2929;50.810;8.342;2022-11-11T08:42:00;8.43;;;4.63;;
5805;SDS011;2929;50.810;8.342;2022-11-11T08:44:46;8.50;;;5.07;;
5805;SDS011;2929;50.810;8.342;2022-11-11T08:47:31;14.30;;;5.67;;
5805;SDS011;2929;50.810;8.342;2022-11-11T08:50:19;8.83;;;6.10;;
5805;SDS011;2929;50.810;8.342;2022-11-11T08:53:05;11.80;;;6.40;;
5805;SDS011;2929;50.810;8.342;2022-11-11T08:55:51;10.60;;;6.00;;
5805;SDS011;2929;50.810;8.342;2022-11-11T08:58:37;9.90;;;7.03;;
5805;SDS011;2929;50.810;8.342;2022-11-11T09:01:22;10.20;;;7.20;;
5805;SDS011;2929;50.810;8.342;2022-11-11T09:04:08;13.30;;;6.47;;
5805;SDS011;2929;50.810;8.342;2022-11-11T09:06:55;10.77;;;6.33;;
5805;SDS011;2929;50.810;8.342;2022-11-11T09:09:40;11.00;;;5.60;;
5805;SDS011;2929;50.810;8.342;2022-11-11T09:12:26;9.80;;;6.13;;
5805;SDS011;2929;50.810;8.342;2022-11-11T09:15:12;10.10;;;5.80;;
5805;SDS011;2929;50.810;8.342;2022-11-11T09:17:57;10.73;;;6.20;;
5805;SDS011;2929;50.810;8.342;2022-11-11T09:20:44;10.80;;;5.97;;
5805;SDS011;2929;50.810;8.342;2022-11-11T09:23:31;9.67;;;5.50;;
5805;SDS011;2929;50.810;8.342;2022-11-11T09:26:17;9.63;;;6.47;;
5805;SDS011;2929;50.810;8.342;2022-11-11T09:29:03;9.17;;;5.97;;
5805;SDS011;2929;50.810;8.342;2022-11-11T09:31:49;11.03;;;7.10;;
5805;SDS011;2929;50.810;8.342;2022-11-11T09:34:34;11.67;;;6.30;;
5805;SDS011;2929;50.810;8.342;2022-11-11T09:37:20;11.23;;;6.90;;
5805;SDS011;2929;50.810;8.342;2022-11-11T09:40:09;9.97;;;6.90;;
5805;SDS011;2929;50.810;8.342;2022-11-11T09:43:02;11.00;;;6.77;;
5805;SDS011;2929;50.810;8.342;2022-11-11T09:45:58;15.10;;;6.53;;
5805;SDS011;2929;50.810;8.342;2022-11-11T09:52:13;10.30;;;6.67;;
5805;SDS011;2929;50.810;8.342;2022-11-11T09:55:02;9.83;;;6.40;;
5805;SDS011;2929;50.810;8.342;2022-11-11T09:57:57;21.93;;;9.20;;
5805;SDS011;2929;50.810;8.342;2022-11-11T10:00:56;16.90;;;8.00;;
5805;SDS011;2929;50.810;8.342;2022-11-11T10:03:46;10.27;;;6.80;;
5805;SDS011;2929;50.810;8.342;2022-11-11T10:06:38;13.00;;;7.13;;
5805;SDS011;2929;50.810;8.342;2022-11-11T10:09:24;9.53;;;6.80;;
5805;SDS011;2929;50.810;8.342;2022-11-11T10:12:16;14.20;;;7.30;;
5805;SDS011;2929;50.810;8.342;2022-11-11T10:15:06;11.00;;;7.57;;
5805;SDS011;2929;50.810;8.342;2022-11-11T10:18:03;23.83;;;12.90;;
5805;SDS011;2929;50.810;8.342;2022-11-11T10:21:34;18.83;;;10.50;;
5805;SDS011;2929;50.810;8.342;2022-11-11T10:24:25;14.70;;;9.10;;
5805;SDS011;2929;50.810;8.342;2022-11-11T10:27:15;10.80;;;7.23;;
5805;SDS011;2929;50.810;8.342;2022-11-11T10:30:12;11.20;;;7.33;;
5805;SDS011;2929;50.810;8.342;2022-11-11T10:33:02;12.63;;;7.37;;
5805;SDS011;2929;50.810;8.342;2022-11-11T10:35:53;9.73;;;6.70;;
5805;SDS011;2929;50.810;8.342;2022-11-11T10:38:44;9.57;;;5.90;;
5805;SDS011;2929;50.810;8.342;2022-11-11T10:41:35;13.27;;;7.90;;
5805;SDS011;2929;50.810;8.342;2022-11-11T10:44:24;9.80;;;7.00;;
5805;SDS011;2929;50.810;8.342;2022-11-11T10:47:13;9.40;;;6.30;;
5805;SDS011;2929;50.810;8.342;2022-11-11T10:50:05;10.17;;;6.10;;
5805;SDS011;2929;50.810;8.342;2022-11-11T10:52:56;9.43;;;5.87;;
5805;SDS011;2929;50.810;8.342;2022-11-11T10:55:50;10.80;;;4.27;;
5805;SDS011;2929;50.810;8.342;2022-11-11T10:58:42;7.00;;;4.13;;
5805;SDS011;2929;50.810;8.342;2022-11-11T11:01:34;8.23;;;4.40;;
5805;SDS011;2929;50.810;8.342;2022-11-11T11:04:25;4.23;;;3.47;;
5805;SDS011;2929;50.810;8.342;2022-11-11T11:07:18;5.40;;;4.00;;
5805;SDS011;2929;50.810;8.342;2022-11-11T11:10:11;4.10;;;3.30;;
5805;SDS011;2929;50.810;8.342;2022-11-11T11:13:02;8.60;;;3.60;;
5805;SDS011;2929;50.810;8.342;2022-11-11T11:15:53;5.40;;;3.20;;
5805;SDS011;2929;50.810;8.342;2022-11-11T11:18:41;5.50;;;3.00;;
5805;SDS011;2929;50.810;8.342;2022-11-11T11:21:29;4.70;;;3.17;;
5805;SDS011;2929;50.810;8.342;2022-11-11T11:24:33;4.80;;;3.40;;
5805;SDS011;2929;50.810;8.342;2022-11-11T11:27:24;4.77;;;2.50;;
5805;SDS011;2929;50.810;8.342;2022-11-11T11:30:11;3.40;;;3.00;;
5805;SDS011;2929;50.810;8.342;2022-11-11T11:32:58;3.87;;;3.07;;
5805;SDS011;2929;50.810;8.342;2022-11-11T11:35:45;3.53;;;2.63;;
5805;SDS011;2929;50.810;8.342;2022-11-11T11:38:39;7.30;;;3.67;;
5805;SDS011;2929;50.810;8.342;2022-11-11T11:41:36;9.70;;;3.93;;
5805;SDS011;2929;50.810;8.342;2022-11-11T11:44:23;4.23;;;3.50;;
5805;SDS011;2929;50.810;8.342;2022-11-11T11:47:13;6.90;;;3.40;;
5805;SDS011;2929;50.810;8.342;2022-11-11T11:53:31;4.83;;;3.97;;
5805;SDS011;2929;50.810;8.342;2022-11-11T11:56:27;5.10;;;3.43;;
5805;SDS011;2929;50.810;8.342;2022-11-11T11:59:20;6.40;;;3.93;;
5805;SDS011;2929;50.810;8.342;2022-11-11T12:02:16;6.83;;;4.30;;
5805;SDS011;2929;50.810;8.342;2022-11-11T12:05:17;9.03;;;4.70;;
5805;SDS011;2929;50.810;8.342;2022-11-11T12:08:13;6.03;;;4.70;;
5805;SDS011;2929;50.810;8.342;2022-11-11T12:11:12;8.40;;;5.70;;
5805;SDS011;2929;50.810;8.342;2022-11-11T12:14:08;11.70;;;7.13;;
5805;SDS011;2929;50.810;8.342;2022-11-11T12:17:09;13.60;;;5.90;;
5805;SDS011;2929;50.810;8.342;2022-11-11T12:20:08;10.90;;;5.20;;
5805;SDS011;2929;50.810;8.342;2022-11-11T12:23:02;8.13;;;5.30;;
5805;SDS011;2929;50.810;8.342;2022-11-11T12:26:00;6.97;;;5.20;;
5805;SDS011;2929;50.810;8.342;2022-11-11T12:29:01;7.93;;;4.00;;
5805;SDS011;2929;50.810;8.342;2022-11-11T12:32:09;6.10;;;3.97;;
5805;SDS011;2929;50.810;8.342;2022-11-11T12:38:25;5.10;;;3.80;;
5805;SDS011;2929;50.810;8.342;2022-11-11T12:41:26;6.80;;;4.00;;
5805;SDS011;2929;50.810;8.342;2022-11-11T12:44:25;5.27;;;3.73;;
5805;SDS011;2929;50.810;8.342;2022-11-11T12:47:21;7.40;;;3.70;;
5805;SDS011;2929;50.810;8.342;2022-11-11T12:50:15;5.90;;;4.80;;
5805;SDS011;2929;50.810;8.342;2022-11-11T12:53:13;6.43;;;4.77;;
5805;SDS011;2929;50.810;8.342;2022-11-11T12:56:06;5.93;;;4.00;;
5805;SDS011;2929;50.810;8.342;2022-11-11T12:59:04;10.43;;;4.30;;
5805;SDS011;2929;50.810;8.342;2022-11-11T13:02:01;8.60;;;3.70;;
5805;SDS011;2929;50.810;8.342;2022-11-11T13:05:04;5.97;;;3.17;;
5805;SDS011;2929;50.810;8.342;2022-11-11T13:08:04;15.10;;;4.17;;
5805;SDS011;2929;50.810;8.342;2022-11-11T13:11:12;9.87;;;3.77;;
5805;SDS011;2929;50.810;8.342;2022-11-11T13:14:08;8.87;;;2.70;;
5805;SDS011;2929;50.810;8.342;2022-11-11T13:17:13;5.50;;;2.30;;
5805;SDS011;2929;50.810;8.342;2022-11-11T13:20:00;7.50;;;2.20;;
5805;SDS011;2929;50.810;8.342;2022-11-11T13:22:49;12.13;;;2.50;;
5805;SDS011;2929;50.810;8.342;2022-11-11T13:25:36;4.33;;;2.47;;
5805;SDS011;2929;50.810;8.342;2022-11-11T13:28:23;4.43;;;2.00;;
5805;SDS011;2929;50.810;8.342;2022-11-11T13:31:14;3.13;;;1.97;;
5805;SDS011;2929;50.810;8.342;2022-11-11T13:34:04;9.37;;;2.80;;
5805;SDS011;2929;50.810;8.342;2022-11-11T13:36:54;7.30;;;2.40;;
5805;SDS011;2929;50.810;8.342;2022-11-11T13:39:44;4.27;;;2.03;;
5805;SDS011;2929;50.810;8.342;2022-11-11T13:42:32;7.10;;;2.30;;
5805;SDS011;2929;50.810;8.342;2022-11-11T13:45:21;9.10;;;2.30;;
5805;SDS011;2929;50.810;8.342;2022-11-11T13:48:15;5.30;;;2.20;;
5805;SDS011;2929;50.810;8.342;2022-11-11T13:51:11;10.40;;;2.67;;
5805;SDS011;2929;50.810;8.342;2022-11-11T13:53:58;8.13;;;2.30;;
5805;SDS011;2929;50.810;8.342;2022-11-11T13:56:46;3.13;;;1.90;;
5805;SDS011;2929;50.810;8.342;2022-11-11T13:59:33;13.03;;;2.40;;
5805;SDS011;2929;50.810;8.342;2022-11-11T14:02:25;10.50;;;2.40;;
5805;SDS011;2929;50.810;8.342;2022-11-11T14:05:21;11.30;;;2.83;;
5805;SDS011;2929;50.810;8.342;2022-11-11T14:08:10;4.33;;;2.50;;
5805;SDS011;2929;50.810;8.342;2022-11-11T14:11:25;5.00;;;3.33;;
5805;SDS011;2929;50.810;8.342;2022-11-11T14:17:27;7.40;;;3.00;;
5805;SDS011;2929;50.810;8.342;2022-11-11T14:20:34;10.33;;;2.50;;
5805;SDS011;2929;50.810;8.342;2022-11-11T14:23:29;3.77;;;2.10;;
5805;SDS011;2929;50.810;8.342;2022-11-11T14:26:21;6.80;;;3.13;;
5805;SDS011;2929;50.810;8.342;2022-11-11T14:29:13;5.47;;;3.37;;
5805;SDS011;2929;50.810;8.342;2022-11-11T14:32:03;4.80;;;2.97;;
5805;SDS011;2929;50.810;8.342;2022-11-11T14:34:56;4.90;;;3.40;;
5805;SDS011;2929;50.810;8.342;2022-11-11T14:37:56;6.00;;;3.20;;
5805;SDS011;2929;50.810;8.342;2022-11-11T14:40:46;6.50;;;3.70;;
5805;SDS011;2929;50.810;8.342;2022-11-11T14:43:33;12.53;;;3.77;;
5805;SDS011;2929;50.810;8.342;2022-11-11T14:46:21;9.30;;;3.37;;
5805;SDS011;2929;50.810;8.342;2022-11-11T14:49:06;7.40;;;4.00;;
5805;SDS011;2929;50.810;8.342;2022-11-11T14:51:53;9.27;;;4.43;;
5805;SDS011;2929;50.810;8.342;2022-11-11T14:54:46;8.93;;;3.37;;
5805;SDS011;2929;50.810;8.342;2022-11-11T14:57:36;5.00;;;3.17;;
5805;SDS011;2929;50.810;8.342;2022-11-11T15:00:23;12.60;;;3.47;;
5805;SDS011;2929;50.810;8.342;2022-11-11T15:03:10;4.93;;;3.50;;
5805;SDS011;2929;50.810;8.342;2022-11-11T15:05:58;6.60;;;3.60;;
5805;SDS011;2929;50.810;8.342;2022-11-11T15:08:47;8.47;;;4.40;;
5805;SDS011;2929;50.810;8.342;2022-11-11T15:11:36;7.87;;;3.83;;
5805;SDS011;2929;50.810;8.342;2022-11-11T15:14:28;11.13;;;3.80;;
5805;SDS011;2929;50.810;8.342;2022-11-11T15:17:18;14.93;;;4.10;;
5805;SDS011;2929;50.810;8.342;2022-11-11T15:20:15;8.00;;;3.90;;
5805;SDS011;2929;50.810;8.342;2022-11-11T15:23:07;7.40;;;3.73;;
5805;SDS011;2929;50.810;8.342;2022-11-11T15:26:00;5.40;;;3.67;;
5805;SDS011;2929;50.810;8.342;2022-11-11T15:28:56;6.83;;;3.50;;
5805;SDS011;2929;50.810;8.342;2022-11-11T15:31:45;11.40;;;4.50;;
5805;SDS011;2929;50.810;8.342;2022-11-11T15:34:34;11.17;;;4.30;;
5805;SDS011;2929;50.810;8.342;2022-11-11T15:37:24;9.53;;;4.30;;
5805;SDS011;2929;50.810;8.342;2022-11-11T15:40:16;11.83;;;4.13;;
5805;SDS011;2929;50.810;8.342;2022-11-11T15:43:03;10.97;;;5.13;;
5805;SDS011;2929;50.810;8.342;2022-11-11T15:45:49;13.90;;;7.20;;
5805;SDS011;2929;50.810;8.342;2022-11-11T15:48:39;19.00;;;5.83;;
5805;SDS011;2929;50.810;8.342;2022-11-11T15:51:27;19.90;;;4.00;;
5805;SDS011;2929;50.810;8.342;2022-11-11T15:54:22;8.40;;;4.60;;
5805;SDS011;2929;50.810;8.342;2022-11-11T15:57:20;9.53;;;4.10;;
5805;SDS011;2929;50.810;8.342;2022-11-11T16:00:18;9.63;;;5.03;;
5805;SDS011;2929;50.810;8.342;2022-11-11T16:03:12;15.17;;;8.90;;
5805;SDS011;2929;50.810;8.342;2022-11-11T16:06:00;25.53;;;13.00;;
5805;SDS011;2929;50.810;8.342;2022-11-11T16:08:48;11.40;;;7.80;;
5805;SDS011;2929;50.810;8.342;2022-11-11T16:11:36;15.93;;;8.17;;
5805;SDS011;2929;50.810;8.342;2022-11-11T16:14:24;8.97;;;4.83;;
5805;SDS011;2929;50.810;8.342;2022-11-11T16:17:13;8.17;;;4.73;;
5805;SDS011;2929;50.810;8.342;2022-11-11T16:19:59;8.70;;;5.80;;
5805;SDS011;2929;50.810;8.342;2022-11-11T16:22:47;16.60;;;5.33;;
5805;SDS011;2929;50.810;8.342;2022-11-11T16:25:34;12.67;;;5.80;;
5805;SDS011;2929;50.810;8.342;2022-11-11T16:28:22;14.23;;;5.70;;
5805;SDS011;2929;50.810;8.342;2022-11-11T16:37:22;8.93;;;5.47;;
5805;SDS011;2929;50.810;8.342;2022-11-11T16:40:39;12.40;;;6.20;;
5805;SDS011;2929;50.810;8.342;2022-11-11T16:43:26;10.00;;;6.13;;
5805;SDS011;2929;50.810;8.342;2022-11-11T16:46:14;8.50;;;5.30;;
5805;SDS011;2929;50.810;8.342;2022-11-11T16:49:00;9.87;;;4.80;;
5805;SDS011;2929;50.810;8.342;2022-11-11T16:51:56;18.03;;;5.50;;
5805;SDS011;2929;50.810;8.342;2022-11-11T16:54:53;12.90;;;4.30;;
5805;SDS011;2929;50.810;8.342;2022-11-11T16:57:41;18.90;;;6.13;;
5805;SDS011;2929;50.810;8.342;2022-11-11T17:00:27;6.80;;;4.00;;
5805;SDS011;2929;50.810;8.342;2022-11-11T17:03:14;10.70;;;4.40;;
5805;SDS011;2929;50.810;8.342;2022-11-11T17:06:00;15.73;;;5.17;;
5805;SDS011;2929;50.810;8.342;2022-11-11T17:08:48;8.73;;;4.70;;
5805;SDS011;2929;50.810;8.342;2022-11-11T17:11:41;6.87;;;4.27;;
5805;SDS011;2929;50.810;8.342;2022-11-11T17:14:29;12.07;;;5.00;;
5805;SDS011;2929;50.810;8.342;2022-11-11T17:17:16;7.70;;;4.70;;
5805;SDS011;2929;50.810;8.342;2022-11-11T17:20:03;6.23;;;3.77;;
5805;SDS011;2929;50.810;8.342;2022-11-11T17:22:50;4.20;;;3.70;;
5805;SDS011;2929;50.810;8.342;2022-11-11T17:25:36;6.80;;;4.37;;
5805;SDS011;2929;50.810;8.342;2022-11-11T17:28:22;15.60;;;5.97;;
5805;SDS011;2929;50.810;8.342;2022-11-11T17:31:13;6.53;;;4.00;;
5805;SDS011;2929;50.810;8.342;2022-11-11T17:34:03;6.10;;;4.17;;
5805;SDS011;2929;50.810;8.342;2022-11-11T17:36:49;10.70;;;4.70;;
5805;SDS011;2929;50.810;8.342;2022-11-11T17:39:35;10.23;;;4.90;;
5805;SDS011;2929;50.810;8.342;2022-11-11T17:42:28;10.90;;;4.80;;
5805;SDS011;2929;50.810;8.342;2022-11-11T17:45:14;11.50;;;5.33;;
5805;SDS011;2929;50.810;8.342;2022-11-11T17:48:01;23.03;;;11.43;;
5805;SDS011;2929;50.810;8.342;2022-11-11T17:50:47;10.97;;;5.50;;
5805;SDS011;2929;50.810;8.342;2022-11-11T17:53:33;11.90;;;4.87;;